sensor_id;sensor_type;location;lat;lon;timestamp;P1;durP1;ratioP1;P2;durP2;ratioP2
70838;SDS011;58464;52.298;4.852;2023-04-24T00:02:21;2.13;;;0.67;;
70838;SDS011;58464;52.298;4.852;2023-04-24T00:04:47;1.30;;;0.80;;
70838;SDS011;58464;52.298;4.852;2023-04-24T00:07:14;1.55;;;0.57;;
70838;SDS011;58464;52.298;4.852;2023-04-24T00:09:39;0.68;;;0.55;;
70838;SDS011;58464;52.298;4.852;2023-04-24T00:12:04;1.27;;;0.80;;
70838;SDS011;58464;52.298;4.852;2023-04-24T00:14:30;0.60;;;0.50;;
70838;SDS011;58464;52.298;4.852;2023-04-24T00:16:56;0.70;;;0.50;;
70838;SDS011;58464;52.298;4.852;2023-04-24T00:19:21;0.45;;;0.45;;
70838;SDS011;58464;52.298;4.852;2023-04-24T00:21:47;0.73;;;0.57;;
70838;SDS011;58464;52.298;4.852;2023-04-24T00:24:14;0.70;;;0.70;;
70838;SDS011;58464;52.298;4.852;2023-04-24T00:26:40;1.73;;;0.88;;
70838;SDS011;58464;52.298;4.852;2023-04-24T00:29:05;1.97;;;0.93;;
70838;SDS011;58464;52.298;4.852;2023-04-24T00:31:30;1.63;;;0.90;;
70838;SDS011;58464;52.298;4.852;2023-04-24T00:33:56;1.63;;;0.85;;
70838;SDS011;58464;52.298;4.852;2023-04-24T00:36:21;0.80;;;0.70;;
70838;SDS011;58464;52.298;4.852;2023-04-24T00:38:46;1.98;;;1.08;;
70838;SDS011;58464;52.298;4.852;2023-04-24T00:41:11;2.05;;;1.23;;
70838;SDS011;58464;52.298;4.852;2023-04-24T00:43:39;2.47;;;1.13;;
70838;SDS011;58464;52.298;4.852;2023-04-24T00:46:05;2.95;;;1.42;;
70838;SDS011;58464;52.298;4.852;2023-04-24T00:48:30;2.70;;;1.48;;
70838;SDS011;58464;52.298;4.852;2023-04-24T00:50:56;2.83;;;2.08;;
70838;SDS011;58464;52.298;4.852;2023-04-24T00:53:23;5.57;;;3.10;;
70838;SDS011;58464;52.298;4.852;2023-04-24T00:55:48;10.50;;;4.82;;
70838;SDS011;58464;52.298;4.852;2023-04-24T00:58:14;7.78;;;4.28;;
70838;SDS011;58464;52.298;4.852;2023-04-24T01:00:39;6.15;;;4.05;;
70838;SDS011;58464;52.298;4.852;2023-04-24T01:03:05;5.28;;;3.25;;
70838;SDS011;58464;52.298;4.852;2023-04-24T01:05:31;5.90;;;2.92;;
70838;SDS011;58464;52.298;4.852;2023-04-24T01:07:56;5.37;;;2.87;;
70838;SDS011;58464;52.298;4.852;2023-04-24T01:10:22;4.90;;;2.08;;
70838;SDS011;58464;52.298;4.852;2023-04-24T01:12:48;6.00;;;1.83;;
70838;SDS011;58464;52.298;4.852;2023-04-24T01:15:13;3.65;;;1.92;;
70838;SDS011;58464;52.298;4.852;2023-04-24T01:17:39;3.90;;;1.40;;
70838;SDS011;58464;52.298;4.852;2023-04-24T01:20:04;3.67;;;1.15;;
70838;SDS011;58464;52.298;4.852;2023-04-24T01:22:30;2.83;;;1.50;;
70838;SDS011;58464;52.298;4.852;2023-04-24T01:24:56;2.90;;;1.58;;
70838;SDS011;58464;52.298;4.852;2023-04-24T01:27:21;2.75;;;1.20;;
70838;SDS011;58464;52.298;4.852;2023-04-24T01:29:46;4.73;;;1.20;;
70838;SDS011;58464;52.298;4.852;2023-04-24T01:32:14;2.90;;;1.15;;
70838;SDS011;58464;52.298;4.852;2023-04-24T01:34:40;1.17;;;0.57;;
70838;SDS011;58464;52.298;4.852;2023-04-24T01:37:06;1.75;;;0.80;;
70838;SDS011;58464;52.298;4.852;2023-04-24T01:39:32;3.22;;;0.80;;
70838;SDS011;58464;52.298;4.852;2023-04-24T01:41:58;1.05;;;0.45;;
70838;SDS011;58464;52.298;4.852;2023-04-24T01:44:23;2.72;;;0.88;;
70838;SDS011;58464;52.298;4.852;2023-04-24T01:46:49;2.47;;;0.65;;
70838;SDS011;58464;52.298;4.852;2023-04-24T01:49:14;2.57;;;0.50;;
70838;SDS011;58464;52.298;4.852;2023-04-24T01:51:39;4.43;;;0.63;;
70838;SDS011;58464;52.298;4.852;2023-04-24T01:54:04;2.20;;;0.60;;
70838;SDS011;58464;52.298;4.852;2023-04-24T01:56:30;2.78;;;0.55;;
70838;SDS011;58464;52.298;4.852;2023-04-24T01:58:58;1.02;;;0.43;;
70838;SDS011;58464;52.298;4.852;2023-04-24T02:01:23;2.70;;;0.43;;
70838;SDS011;58464;52.298;4.852;2023-04-24T02:03:48;1.80;;;0.50;;
70838;SDS011;58464;52.298;4.852;2023-04-24T02:06:14;0.35;;;0.35;;
70838;SDS011;58464;52.298;4.852;2023-04-24T02:08:39;3.28;;;0.50;;
70838;SDS011;58464;52.298;4.852;2023-04-24T02:11:04;2.27;;;0.70;;
70838;SDS011;58464;52.298;4.852;2023-04-24T02:13:30;5.57;;;1.15;;
70838;SDS011;58464;52.298;4.852;2023-04-24T02:15:56;1.48;;;0.57;;
70838;SDS011;58464;52.298;4.852;2023-04-24T02:18:24;2.33;;;0.50;;
70838;SDS011;58464;52.298;4.852;2023-04-24T02:20:49;1.00;;;0.47;;
70838;SDS011;58464;52.298;4.852;2023-04-24T02:23:14;2.38;;;0.35;;
70838;SDS011;58464;52.298;4.852;2023-04-24T02:25:40;1.65;;;0.40;;
70838;SDS011;58464;52.298;4.852;2023-04-24T02:28:05;0.53;;;0.23;;
70838;SDS011;58464;52.298;4.852;2023-04-24T02:30:30;0.87;;;0.37;;
70838;SDS011;58464;52.298;4.852;2023-04-24T02:32:55;0.90;;;0.37;;
70838;SDS011;58464;52.298;4.852;2023-04-24T02:35:21;0.27;;;0.20;;
70838;SDS011;58464;52.298;4.852;2023-04-24T02:37:46;3.13;;;0.30;;
70838;SDS011;58464;52.298;4.852;2023-04-24T02:40:11;1.07;;;0.47;;
70838;SDS011;58464;52.298;4.852;2023-04-24T02:42:36;0.65;;;0.22;;
70838;SDS011;58464;52.298;4.852;2023-04-24T02:45:02;2.00;;;0.30;;
70838;SDS011;58464;52.298;4.852;2023-04-24T02:47:27;0.32;;;0.13;;
70838;SDS011;58464;52.298;4.852;2023-04-24T02:49:52;1.07;;;0.20;;
70838;SDS011;58464;52.298;4.852;2023-04-24T02:52:18;6.53;;;0.60;;
70838;SDS011;58464;52.298;4.852;2023-04-24T02:54:43;2.47;;;0.43;;
70838;SDS011;58464;52.298;4.852;2023-04-24T02:57:08;3.63;;;0.60;;
70838;SDS011;58464;52.298;4.852;2023-04-24T02:59:33;0.60;;;0.30;;
70838;SDS011;58464;52.298;4.852;2023-04-24T03:01:59;0.60;;;0.30;;
70838;SDS011;58464;52.298;4.852;2023-04-24T03:04:24;2.88;;;0.60;;
70838;SDS011;58464;52.298;4.852;2023-04-24T03:06:49;1.17;;;0.22;;
70838;SDS011;58464;52.298;4.852;2023-04-24T03:09:17;0.95;;;0.13;;
70838;SDS011;58464;52.298;4.852;2023-04-24T03:11:42;0.93;;;0.27;;
70838;SDS011;58464;52.298;4.852;2023-04-24T03:14:08;0.77;;;0.20;;
70838;SDS011;58464;52.298;4.852;2023-04-24T03:16:33;0.85;;;0.20;;
70838;SDS011;58464;52.298;4.852;2023-04-24T03:18:59;1.85;;;0.40;;
70838;SDS011;58464;52.298;4.852;2023-04-24T03:21:24;0.85;;;0.47;;
70838;SDS011;58464;52.298;4.852;2023-04-24T03:23:49;1.80;;;0.40;;
70838;SDS011;58464;52.298;4.852;2023-04-24T03:26:15;1.65;;;0.30;;
70838;SDS011;58464;52.298;4.852;2023-04-24T03:28:40;0.90;;;0.30;;
70838;SDS011;58464;52.298;4.852;2023-04-24T03:31:05;0.47;;;0.40;;
70838;SDS011;58464;52.298;4.852;2023-04-24T03:33:31;0.73;;;0.30;;
70838;SDS011;58464;52.298;4.852;2023-04-24T03:35:56;0.57;;;0.30;;
70838;SDS011;58464;52.298;4.852;2023-04-24T03:38:21;0.97;;;0.30;;
70838;SDS011;58464;52.298;4.852;2023-04-24T03:40:46;6.27;;;0.70;;
70838;SDS011;58464;52.298;4.852;2023-04-24T03:43:11;0.63;;;0.40;;
70838;SDS011;58464;52.298;4.852;2023-04-24T03:45:37;0.77;;;0.20;;
70838;SDS011;58464;52.298;4.852;2023-04-24T03:48:02;0.67;;;0.33;;
70838;SDS011;58464;52.298;4.852;2023-04-24T03:50:27;1.50;;;0.32;;
70838;SDS011;58464;52.298;4.852;2023-04-24T03:52:55;1.40;;;0.30;;
70838;SDS011;58464;52.298;4.852;2023-04-24T03:55:20;0.40;;;0.30;;
70838;SDS011;58464;52.298;4.852;2023-04-24T03:57:45;0.20;;;0.20;;
70838;SDS011;58464;52.298;4.852;2023-04-24T04:00:11;0.40;;;0.27;;
70838;SDS011;58464;52.298;4.852;2023-04-24T04:02:36;0.75;;;0.30;;
70838;SDS011;58464;52.298;4.852;2023-04-24T04:05:01;0.20;;;0.20;;
70838;SDS011;58464;52.298;4.852;2023-04-24T04:07:27;1.50;;;0.32;;
70838;SDS011;58464;52.298;4.852;2023-04-24T04:09:52;4.87;;;0.30;;
70838;SDS011;58464;52.298;4.852;2023-04-24T04:12:17;0.20;;;0.17;;
70838;SDS011;58464;52.298;4.852;2023-04-24T04:14:42;0.10;;;0.10;;
70838;SDS011;58464;52.298;4.852;2023-04-24T04:17:08;1.27;;;0.27;;
70838;SDS011;58464;52.298;4.852;2023-04-24T04:19:33;1.38;;;0.40;;
70838;SDS011;58464;52.298;4.852;2023-04-24T04:21:58;1.60;;;0.32;;
70838;SDS011;58464;52.298;4.852;2023-04-24T04:24:24;0.95;;;0.22;;
70838;SDS011;58464;52.298;4.852;2023-04-24T04:26:49;0.20;;;0.20;;
70838;SDS011;58464;52.298;4.852;2023-04-24T04:29:16;0.47;;;0.17;;
70838;SDS011;58464;52.298;4.852;2023-04-24T04:31:41;0.30;;;0.20;;
70838;SDS011;58464;52.298;4.852;2023-04-24T04:34:07;0.10;;;0.07;;
70838;SDS011;58464;52.298;4.852;2023-04-24T04:36:33;0.90;;;0.20;;
70838;SDS011;58464;52.298;4.852;2023-04-24T04:39:01;1.52;;;0.30;;
70838;SDS011;58464;52.298;4.852;2023-04-24T04:41:27;1.05;;;0.30;;
70838;SDS011;58464;52.298;4.852;2023-04-24T04:43:52;0.55;;;0.20;;
70838;SDS011;58464;52.298;4.852;2023-04-24T04:46:18;1.93;;;0.40;;
70838;SDS011;58464;52.298;4.852;2023-04-24T04:48:43;0.52;;;0.30;;
70838;SDS011;58464;52.298;4.852;2023-04-24T04:51:08;0.98;;;0.22;;
70838;SDS011;58464;52.298;4.852;2023-04-24T04:53:33;1.13;;;0.50;;
70838;SDS011;58464;52.298;4.852;2023-04-24T04:55:59;1.90;;;0.40;;
70838;SDS011;58464;52.298;4.852;2023-04-24T04:58:25;1.10;;;0.30;;
70838;SDS011;58464;52.298;4.852;2023-04-24T05:00:50;0.33;;;0.30;;
70838;SDS011;58464;52.298;4.852;2023-04-24T05:03:16;2.30;;;0.50;;
70838;SDS011;58464;52.298;4.852;2023-04-24T05:05:41;0.67;;;0.37;;
70838;SDS011;58464;52.298;4.852;2023-04-24T05:08:07;1.60;;;0.67;;
70838;SDS011;58464;52.298;4.852;2023-04-24T05:10:32;1.60;;;0.65;;
70838;SDS011;58464;52.298;4.852;2023-04-24T05:12:57;1.00;;;0.55;;
70838;SDS011;58464;52.298;4.852;2023-04-24T05:15:23;1.85;;;0.98;;
70838;SDS011;58464;52.298;4.852;2023-04-24T05:17:48;6.53;;;1.50;;
70838;SDS011;58464;52.298;4.852;2023-04-24T05:20:13;3.13;;;1.73;;
70838;SDS011;58464;52.298;4.852;2023-04-24T05:22:39;3.38;;;2.20;;
70838;SDS011;58464;52.298;4.852;2023-04-24T05:25:04;6.40;;;2.93;;
70838;SDS011;58464;52.298;4.852;2023-04-24T05:27:30;5.70;;;4.20;;
70838;SDS011;58464;52.298;4.852;2023-04-24T05:29:59;9.27;;;4.38;;
70838;SDS011;58464;52.298;4.852;2023-04-24T05:32:24;8.07;;;5.05;;
70838;SDS011;58464;52.298;4.852;2023-04-24T05:34:50;10.75;;;6.78;;
70838;SDS011;58464;52.298;4.852;2023-04-24T05:37:16;7.55;;;5.03;;
70838;SDS011;58464;52.298;4.852;2023-04-24T05:39:43;11.43;;;5.43;;
70838;SDS011;58464;52.298;4.852;2023-04-24T05:42:08;13.60;;;7.57;;
70838;SDS011;58464;52.298;4.852;2023-04-24T05:44:33;16.20;;;9.68;;
70838;SDS011;58464;52.298;4.852;2023-04-24T05:46:59;16.75;;;6.88;;
70838;SDS011;58464;52.298;4.852;2023-04-24T05:49:24;20.27;;;11.02;;
70838;SDS011;58464;52.298;4.852;2023-04-24T05:51:49;18.90;;;10.40;;
70838;SDS011;58464;52.298;4.852;2023-04-24T05:54:14;18.55;;;8.73;;
70838;SDS011;58464;52.298;4.852;2023-04-24T05:56:40;12.63;;;7.32;;
70838;SDS011;58464;52.298;4.852;2023-04-24T05:59:05;13.90;;;6.03;;
70838;SDS011;58464;52.298;4.852;2023-04-24T06:01:31;13.90;;;6.95;;
70838;SDS011;58464;52.298;4.852;2023-04-24T06:03:56;11.65;;;7.03;;
70838;SDS011;58464;52.298;4.852;2023-04-24T06:06:21;16.73;;;7.93;;
70838;SDS011;58464;52.298;4.852;2023-04-24T06:08:47;9.95;;;5.47;;
70838;SDS011;58464;52.298;4.852;2023-04-24T06:11:13;18.17;;;6.85;;
70838;SDS011;58464;52.298;4.852;2023-04-24T06:13:38;12.07;;;5.03;;
70838;SDS011;58464;52.298;4.852;2023-04-24T06:16:04;12.27;;;6.25;;
70838;SDS011;58464;52.298;4.852;2023-04-24T06:18:30;14.10;;;4.90;;
70838;SDS011;58464;52.298;4.852;2023-04-24T06:20:55;14.80;;;4.43;;
70838;SDS011;58464;52.298;4.852;2023-04-24T06:23:21;12.95;;;3.30;;
70838;SDS011;58464;52.298;4.852;2023-04-24T06:25:46;16.02;;;5.75;;
70838;SDS011;58464;52.298;4.852;2023-04-24T06:28:11;9.83;;;4.30;;
70838;SDS011;58464;52.298;4.852;2023-04-24T06:30:37;16.83;;;5.15;;
70838;SDS011;58464;52.298;4.852;2023-04-24T06:33:02;14.38;;;4.68;;
70838;SDS011;58464;52.298;4.852;2023-04-24T06:35:27;14.35;;;5.15;;
70838;SDS011;58464;52.298;4.852;2023-04-24T06:37:53;18.47;;;6.13;;
70838;SDS011;58464;52.298;4.852;2023-04-24T06:40:18;11.27;;;5.20;;
70838;SDS011;58464;52.298;4.852;2023-04-24T06:42:43;16.08;;;3.90;;
70838;SDS011;58464;52.298;4.852;2023-04-24T06:45:09;11.88;;;4.47;;
70838;SDS011;58464;52.298;4.852;2023-04-24T06:47:34;11.82;;;5.50;;
70838;SDS011;58464;52.298;4.852;2023-04-24T06:50:00;12.13;;;5.13;;
70838;SDS011;58464;52.298;4.852;2023-04-24T06:52:25;11.30;;;4.27;;
70838;SDS011;58464;52.298;4.852;2023-04-24T06:54:50;14.90;;;4.50;;
70838;SDS011;58464;52.298;4.852;2023-04-24T06:57:15;17.03;;;4.57;;
70838;SDS011;58464;52.298;4.852;2023-04-24T06:59:41;15.27;;;4.13;;
70838;SDS011;58464;52.298;4.852;2023-04-24T07:02:06;10.90;;;3.63;;
70838;SDS011;58464;52.298;4.852;2023-04-24T07:04:31;10.10;;;4.67;;
70838;SDS011;58464;52.298;4.852;2023-04-24T07:06:57;15.88;;;4.43;;
70838;SDS011;58464;52.298;4.852;2023-04-24T07:09:23;19.47;;;5.50;;
70838;SDS011;58464;52.298;4.852;2023-04-24T07:11:49;16.80;;;4.70;;
70838;SDS011;58464;52.298;4.852;2023-04-24T07:14:14;13.93;;;3.85;;
70838;SDS011;58464;52.298;4.852;2023-04-24T07:16:40;16.83;;;4.28;;
70838;SDS011;58464;52.298;4.852;2023-04-24T07:19:05;9.60;;;2.85;;
70838;SDS011;58464;52.298;4.852;2023-04-24T07:21:31;10.55;;;3.17;;
70838;SDS011;58464;52.298;4.852;2023-04-24T07:23:56;15.95;;;3.00;;
70838;SDS011;58464;52.298;4.852;2023-04-24T07:26:21;10.77;;;3.40;;
70838;SDS011;58464;52.298;4.852;2023-04-24T07:28:47;17.23;;;2.92;;
70838;SDS011;58464;52.298;4.852;2023-04-24T07:31:12;11.98;;;4.07;;
70838;SDS011;58464;52.298;4.852;2023-04-24T07:33:37;11.80;;;3.27;;
70838;SDS011;58464;52.298;4.852;2023-04-24T07:36:03;13.23;;;2.92;;
70838;SDS011;58464;52.298;4.852;2023-04-24T07:38:31;16.75;;;3.95;;
70838;SDS011;58464;52.298;4.852;2023-04-24T07:40:57;14.43;;;3.80;;
70838;SDS011;58464;52.298;4.852;2023-04-24T07:43:22;17.40;;;3.78;;
70838;SDS011;58464;52.298;4.852;2023-04-24T07:45:49;14.00;;;3.28;;
70838;SDS011;58464;52.298;4.852;2023-04-24T07:48:14;16.55;;;3.10;;
70838;SDS011;58464;52.298;4.852;2023-04-24T07:50:41;12.68;;;3.03;;
70838;SDS011;58464;52.298;4.852;2023-04-24T07:53:06;13.82;;;2.78;;
70838;SDS011;58464;52.298;4.852;2023-04-24T07:55:32;12.27;;;3.25;;
70838;SDS011;58464;52.298;4.852;2023-04-24T07:57:57;15.50;;;3.80;;
70838;SDS011;58464;52.298;4.852;2023-04-24T08:00:23;19.98;;;4.32;;
70838;SDS011;58464;52.298;4.852;2023-04-24T08:02:48;18.57;;;2.07;;
70838;SDS011;58464;52.298;4.852;2023-04-24T08:05:13;14.82;;;2.80;;
70838;SDS011;58464;52.298;4.852;2023-04-24T08:07:38;12.17;;;3.00;;
70838;SDS011;58464;52.298;4.852;2023-04-24T08:10:04;15.23;;;3.08;;
70838;SDS011;58464;52.298;4.852;2023-04-24T08:12:29;19.00;;;4.20;;
70838;SDS011;58464;52.298;4.852;2023-04-24T08:14:55;22.33;;;3.75;;
70838;SDS011;58464;52.298;4.852;2023-04-24T08:17:20;11.10;;;3.17;;
70838;SDS011;58464;52.298;4.852;2023-04-24T08:19:45;6.75;;;2.17;;
70838;SDS011;58464;52.298;4.852;2023-04-24T08:22:16;13.65;;;2.75;;
70838;SDS011;58464;52.298;4.852;2023-04-24T08:24:42;11.13;;;2.80;;
70838;SDS011;58464;52.298;4.852;2023-04-24T08:27:08;6.00;;;2.40;;
70838;SDS011;58464;52.298;4.852;2023-04-24T08:29:34;6.70;;;2.55;;
70838;SDS011;58464;52.298;4.852;2023-04-24T08:31:59;11.20;;;2.50;;
70838;SDS011;58464;52.298;4.852;2023-04-24T08:34:24;20.02;;;3.25;;
70838;SDS011;58464;52.298;4.852;2023-04-24T08:36:50;11.57;;;2.23;;
70838;SDS011;58464;52.298;4.852;2023-04-24T08:39:15;9.90;;;2.20;;
70838;SDS011;58464;52.298;4.852;2023-04-24T08:41:42;6.43;;;1.77;;
70838;SDS011;58464;52.298;4.852;2023-04-24T08:44:10;8.95;;;2.38;;
70838;SDS011;58464;52.298;4.852;2023-04-24T08:46:36;15.18;;;2.25;;
70838;SDS011;58464;52.298;4.852;2023-04-24T08:49:01;16.85;;;2.65;;
70838;SDS011;58464;52.298;4.852;2023-04-24T08:51:27;14.73;;;2.75;;
70838;SDS011;58464;52.298;4.852;2023-04-24T08:53:53;12.95;;;2.78;;
70838;SDS011;58464;52.298;4.852;2023-04-24T08:56:19;10.57;;;2.47;;
70838;SDS011;58464;52.298;4.852;2023-04-24T08:58:44;7.47;;;2.10;;
70838;SDS011;58464;52.298;4.852;2023-04-24T09:01:10;11.02;;;1.70;;
70838;SDS011;58464;52.298;4.852;2023-04-24T09:03:36;13.60;;;2.42;;
70838;SDS011;58464;52.298;4.852;2023-04-24T09:06:02;13.57;;;2.20;;
70838;SDS011;58464;52.298;4.852;2023-04-24T09:08:27;12.35;;;2.55;;
70838;SDS011;58464;52.298;4.852;2023-04-24T09:10:53;12.82;;;3.15;;
70838;SDS011;58464;52.298;4.852;2023-04-24T09:13:18;10.70;;;2.83;;
70838;SDS011;58464;52.298;4.852;2023-04-24T09:15:44;11.10;;;1.70;;
70838;SDS011;58464;52.298;4.852;2023-04-24T09:18:09;5.78;;;1.65;;
70838;SDS011;58464;52.298;4.852;2023-04-24T09:20:35;6.85;;;1.92;;
70838;SDS011;58464;52.298;4.852;2023-04-24T09:23:20;6.93;;;1.63;;
70838;SDS011;58464;52.298;4.852;2023-04-24T09:25:45;7.13;;;1.80;;
70838;SDS011;58464;52.298;4.852;2023-04-24T09:28:11;8.38;;;1.67;;
70838;SDS011;58464;52.298;4.852;2023-04-24T09:30:36;9.93;;;1.87;;
70838;SDS011;58464;52.298;4.852;2023-04-24T09:33:12;8.68;;;1.38;;
70838;SDS011;58464;52.298;4.852;2023-04-24T09:35:40;9.73;;;2.08;;
70838;SDS011;58464;52.298;4.852;2023-04-24T09:38:05;7.32;;;1.20;;
70838;SDS011;58464;52.298;4.852;2023-04-24T09:40:30;7.38;;;1.45;;
70838;SDS011;58464;52.298;4.852;2023-04-24T09:42:59;5.55;;;1.20;;
70838;SDS011;58464;52.298;4.852;2023-04-24T09:45:35;8.13;;;1.90;;
70838;SDS011;58464;52.298;4.852;2023-04-24T09:48:01;5.13;;;1.13;;
70838;SDS011;58464;52.298;4.852;2023-04-24T09:50:26;7.77;;;1.50;;
70838;SDS011;58464;52.298;4.852;2023-04-24T09:52:58;4.20;;;1.27;;
70838;SDS011;58464;52.298;4.852;2023-04-24T09:55:24;3.88;;;1.10;;
70838;SDS011;58464;52.298;4.852;2023-04-24T10:00:25;7.03;;;1.80;;
70838;SDS011;58464;52.298;4.852;2023-04-24T10:02:54;5.35;;;1.65;;
70838;SDS011;58464;52.298;4.852;2023-04-24T10:05:22;4.40;;;1.02;;
70838;SDS011;58464;52.298;4.852;2023-04-24T10:07:47;10.32;;;1.08;;
70838;SDS011;58464;52.298;4.852;2023-04-24T10:10:13;0.80;;;0.52;;
70838;SDS011;58464;52.298;4.852;2023-04-24T10:12:38;4.25;;;0.70;;
70838;SDS011;58464;52.298;4.852;2023-04-24T10:15:04;3.50;;;1.23;;
70838;SDS011;58464;52.298;4.852;2023-04-24T10:17:30;1.27;;;0.77;;
70838;SDS011;58464;52.298;4.852;2023-04-24T10:19:56;4.57;;;0.88;;
70838;SDS011;58464;52.298;4.852;2023-04-24T10:22:22;2.38;;;0.73;;
70838;SDS011;58464;52.298;4.852;2023-04-24T10:24:49;6.97;;;1.10;;
70838;SDS011;58464;52.298;4.852;2023-04-24T10:27:16;10.88;;;1.58;;
70838;SDS011;58464;52.298;4.852;2023-04-24T10:29:42;2.30;;;0.85;;
70838;SDS011;58464;52.298;4.852;2023-04-24T10:32:08;4.05;;;0.60;;
70838;SDS011;58464;52.298;4.852;2023-04-24T10:34:35;4.35;;;0.88;;
70838;SDS011;58464;52.298;4.852;2023-04-24T10:37:00;6.68;;;1.13;;
70838;SDS011;58464;52.298;4.852;2023-04-24T10:39:27;4.43;;;1.08;;
70838;SDS011;58464;52.298;4.852;2023-04-24T10:41:52;10.77;;;1.75;;
70838;SDS011;58464;52.298;4.852;2023-04-24T10:44:18;2.70;;;1.02;;
70838;SDS011;58464;52.298;4.852;2023-04-24T10:46:47;5.07;;;1.23;;
70838;SDS011;58464;52.298;4.852;2023-04-24T10:49:17;4.75;;;1.33;;
70838;SDS011;58464;52.298;4.852;2023-04-24T10:51:53;2.22;;;0.63;;
70838;SDS011;58464;52.298;4.852;2023-04-24T10:59:47;4.33;;;1.10;;
70838;SDS011;58464;52.298;4.852;2023-04-24T11:02:16;6.05;;;1.15;;
70838;SDS011;58464;52.298;4.852;2023-04-24T11:04:41;0.77;;;0.50;;
70838;SDS011;58464;52.298;4.852;2023-04-24T11:07:10;5.22;;;1.38;;
70838;SDS011;58464;52.298;4.852;2023-04-24T11:09:36;8.10;;;1.20;;
70838;SDS011;58464;52.298;4.852;2023-04-24T11:12:05;6.60;;;1.50;;
70838;SDS011;58464;52.298;4.852;2023-04-24T11:17:32;4.13;;;1.30;;
70838;SDS011;58464;52.298;4.852;2023-04-24T11:20:05;8.68;;;2.03;;
70838;SDS011;58464;52.298;4.852;2023-04-24T11:22:34;8.00;;;1.73;;
70838;SDS011;58464;52.298;4.852;2023-04-24T11:25:00;2.50;;;0.80;;
70838;SDS011;58464;52.298;4.852;2023-04-24T11:27:28;7.70;;;1.15;;
70838;SDS011;58464;52.298;4.852;2023-04-24T11:34:46;6.05;;;1.35;;
70838;SDS011;58464;52.298;4.852;2023-04-24T11:37:11;4.10;;;1.13;;
70838;SDS011;58464;52.298;4.852;2023-04-24T11:39:37;6.28;;;2.00;;
70838;SDS011;58464;52.298;4.852;2023-04-24T11:42:03;11.90;;;1.97;;
70838;SDS011;58464;52.298;4.852;2023-04-24T11:44:28;5.43;;;1.80;;
70838;SDS011;58464;52.298;4.852;2023-04-24T11:46:55;5.30;;;1.55;;
70838;SDS011;58464;52.298;4.852;2023-04-24T11:49:20;5.45;;;1.65;;
70838;SDS011;58464;52.298;4.852;2023-04-24T11:51:46;10.13;;;2.05;;
70838;SDS011;58464;52.298;4.852;2023-04-24T11:54:11;5.47;;;1.67;;
70838;SDS011;58464;52.298;4.852;2023-04-24T11:56:36;2.95;;;1.02;;
70838;SDS011;58464;52.298;4.852;2023-04-24T11:59:03;6.93;;;1.40;;
70838;SDS011;58464;52.298;4.852;2023-04-24T12:01:29;8.57;;;1.20;;
70838;SDS011;58464;52.298;4.852;2023-04-24T12:03:59;9.90;;;2.27;;
70838;SDS011;58464;52.298;4.852;2023-04-24T12:06:24;5.47;;;2.00;;
70838;SDS011;58464;52.298;4.852;2023-04-24T12:08:50;10.60;;;2.38;;
70838;SDS011;58464;52.298;4.852;2023-04-24T12:11:17;13.77;;;3.28;;
70838;SDS011;58464;52.298;4.852;2023-04-24T12:13:43;6.38;;;2.78;;
70838;SDS011;58464;52.298;4.852;2023-04-24T12:16:10;9.10;;;1.55;;
70838;SDS011;58464;52.298;4.852;2023-04-24T12:18:35;7.93;;;1.92;;
70838;SDS011;58464;52.298;4.852;2023-04-24T12:21:21;5.35;;;1.90;;
70838;SDS011;58464;52.298;4.852;2023-04-24T12:23:48;7.32;;;1.75;;
70838;SDS011;58464;52.298;4.852;2023-04-24T12:26:20;13.05;;;2.40;;
70838;SDS011;58464;52.298;4.852;2023-04-24T12:28:47;16.65;;;2.22;;
70838;SDS011;58464;52.298;4.852;2023-04-24T12:31:14;14.90;;;3.55;;
70838;SDS011;58464;52.298;4.852;2023-04-24T12:33:40;10.30;;;1.85;;
70838;SDS011;58464;52.298;4.852;2023-04-24T12:36:06;12.50;;;2.10;;
70838;SDS011;58464;52.298;4.852;2023-04-24T12:38:31;11.70;;;2.13;;
70838;SDS011;58464;52.298;4.852;2023-04-24T12:41:06;14.77;;;2.83;;
70838;SDS011;58464;52.298;4.852;2023-04-24T12:43:31;14.68;;;3.47;;
70838;SDS011;58464;52.298;4.852;2023-04-24T12:45:57;11.13;;;3.13;;
70838;SDS011;58464;52.298;4.852;2023-04-24T12:48:22;17.27;;;3.97;;
70838;SDS011;58464;52.298;4.852;2023-04-24T12:50:47;11.73;;;2.65;;
70838;SDS011;58464;52.298;4.852;2023-04-24T12:53:13;15.13;;;3.13;;
70838;SDS011;58464;52.298;4.852;2023-04-24T12:55:38;12.98;;;3.00;;
70838;SDS011;58464;52.298;4.852;2023-04-24T12:58:03;13.90;;;3.10;;
70838;SDS011;58464;52.298;4.852;2023-04-24T13:00:29;11.32;;;2.75;;
70838;SDS011;58464;52.298;4.852;2023-04-24T13:02:54;19.65;;;3.85;;
70838;SDS011;58464;52.298;4.852;2023-04-24T13:05:19;17.00;;;3.45;;
70838;SDS011;58464;52.298;4.852;2023-04-24T13:07:45;15.68;;;3.40;;
70838;SDS011;58464;52.298;4.852;2023-04-24T13:10:10;14.43;;;2.63;;
70838;SDS011;58464;52.298;4.852;2023-04-24T13:12:35;12.27;;;3.28;;
70838;SDS011;58464;52.298;4.852;2023-04-24T13:15:01;11.85;;;1.90;;
70838;SDS011;58464;52.298;4.852;2023-04-24T13:17:26;13.35;;;2.30;;
70838;SDS011;58464;52.298;4.852;2023-04-24T13:19:53;14.75;;;3.28;;
70838;SDS011;58464;52.298;4.852;2023-04-24T13:22:19;9.93;;;2.58;;
70838;SDS011;58464;52.298;4.852;2023-04-24T13:24:45;11.13;;;2.88;;
70838;SDS011;58464;52.298;4.852;2023-04-24T13:27:10;14.38;;;2.65;;
70838;SDS011;58464;52.298;4.852;2023-04-24T13:29:36;11.60;;;3.15;;
70838;SDS011;58464;52.298;4.852;2023-04-24T13:32:01;6.65;;;2.08;;
70838;SDS011;58464;52.298;4.852;2023-04-24T13:34:27;10.15;;;2.53;;
70838;SDS011;58464;52.298;4.852;2023-04-24T13:36:52;13.93;;;2.80;;
70838;SDS011;58464;52.298;4.852;2023-04-24T13:39:18;14.55;;;2.72;;
70838;SDS011;58464;52.298;4.852;2023-04-24T13:41:43;14.57;;;3.45;;
70838;SDS011;58464;52.298;4.852;2023-04-24T13:44:09;12.15;;;2.58;;
70838;SDS011;58464;52.298;4.852;2023-04-24T13:46:34;10.95;;;2.85;;
70838;SDS011;58464;52.298;4.852;2023-04-24T13:48:59;12.52;;;2.35;;
70838;SDS011;58464;52.298;4.852;2023-04-24T13:51:25;12.50;;;2.38;;
70838;SDS011;58464;52.298;4.852;2023-04-24T13:53:53;9.98;;;2.45;;
70838;SDS011;58464;52.298;4.852;2023-04-24T13:56:19;7.93;;;2.33;;
70838;SDS011;58464;52.298;4.852;2023-04-24T13:58:45;6.78;;;2.00;;
70838;SDS011;58464;52.298;4.852;2023-04-24T14:01:10;5.50;;;2.13;;
70838;SDS011;58464;52.298;4.852;2023-04-24T14:03:36;3.42;;;1.60;;
70838;SDS011;58464;52.298;4.852;2023-04-24T14:06:02;10.73;;;2.20;;
70838;SDS011;58464;52.298;4.852;2023-04-24T14:08:27;5.75;;;1.67;;
70838;SDS011;58464;52.298;4.852;2023-04-24T14:10:52;12.88;;;3.05;;
70838;SDS011;58464;52.298;4.852;2023-04-24T14:13:18;11.82;;;3.25;;
70838;SDS011;58464;52.298;4.852;2023-04-24T14:15:44;12.60;;;2.08;;
70838;SDS011;58464;52.298;4.852;2023-04-24T14:18:09;9.48;;;2.33;;
70838;SDS011;58464;52.298;4.852;2023-04-24T14:20:34;11.55;;;2.53;;
70838;SDS011;58464;52.298;4.852;2023-04-24T14:23:00;11.07;;;2.83;;
70838;SDS011;58464;52.298;4.852;2023-04-24T14:25:25;12.52;;;3.10;;
70838;SDS011;58464;52.298;4.852;2023-04-24T14:27:50;12.07;;;2.95;;
70838;SDS011;58464;52.298;4.852;2023-04-24T14:30:16;15.40;;;3.83;;
70838;SDS011;58464;52.298;4.852;2023-04-24T14:32:41;15.35;;;3.75;;
70838;SDS011;58464;52.298;4.852;2023-04-24T14:35:07;12.27;;;3.07;;
70838;SDS011;58464;52.298;4.852;2023-04-24T14:37:32;15.27;;;3.75;;
70838;SDS011;58464;52.298;4.852;2023-04-24T14:39:57;16.77;;;3.35;;
70838;SDS011;58464;52.298;4.852;2023-04-24T14:42:22;14.70;;;3.20;;
70838;SDS011;58464;52.298;4.852;2023-04-24T14:44:48;17.38;;;4.07;;
70838;SDS011;58464;52.298;4.852;2023-04-24T14:47:13;6.32;;;2.53;;
70838;SDS011;58464;52.298;4.852;2023-04-24T14:49:38;8.30;;;2.40;;
70838;SDS011;58464;52.298;4.852;2023-04-24T14:52:04;13.30;;;3.78;;